createdAt,value
2022-10-08T00:00:51.495Z,14.90
2022-10-08T00:03:19.258Z,14.80
2022-10-08T00:05:56.269Z,14.90
2022-10-08T00:08:23.822Z,14.90
2022-10-08T00:10:59.087Z,15.00
2022-10-08T00:13:27.076Z,15.00
2022-10-08T00:15:53.846Z,15.00
2022-10-08T00:18:21.021Z,15.00
2022-10-08T00:20:47.995Z,14.90
2022-10-08T00:23:16.820Z,14.90
2022-10-08T00:25:44.654Z,14.90
2022-10-08T00:28:13.580Z,15.00
2022-10-08T00:30:41.370Z,15.00
2022-10-08T00:33:09.849Z,14.80
2022-10-08T00:35:40.494Z,14.80
2022-10-08T00:38:07.553Z,14.80
2022-10-08T00:40:44.658Z,14.80
2022-10-08T00:43:16.074Z,14.90
2022-10-08T00:45:47.837Z,14.90
2022-10-08T00:48:20.872Z,14.90
2022-10-08T00:50:47.954Z,14.80
2022-10-08T00:53:14.675Z,14.80
2022-10-08T00:55:43.900Z,14.80
2022-10-08T00:58:23.994Z,14.70
2022-10-08T01:00:51.716Z,14.70
2022-10-08T01:03:18.293Z,14.70
2022-10-08T01:06:14.375Z,14.70
2022-10-08T01:08:54.569Z,14.70
2022-10-08T01:11:40.031Z,14.70
2022-10-08T01:14:20.819Z,14.80
2022-10-08T01:17:24.253Z,14.80
2022-10-08T01:20:04.816Z,14.70
2022-10-08T01:23:07.636Z,14.70
2022-10-08T01:25:43.881Z,14.70
2022-10-08T01:28:22.720Z,14.70
2022-10-08T01:31:04.659Z,14.70
2022-10-08T01:33:35.931Z,14.80
2022-10-08T01:36:05.118Z,14.80
2022-10-08T01:38:35.584Z,14.70
2022-10-08T01:41:06.967Z,14.70
2022-10-08T01:43:37.806Z,14.70
2022-10-08T01:46:11.990Z,14.60
2022-10-08T01:48:41.896Z,14.60
2022-10-08T01:51:13.682Z,14.60
2022-10-08T01:53:41.752Z,14.60
2022-10-08T01:56:11.920Z,14.60
2022-10-08T01:58:49.976Z,14.60
2022-10-08T02:01:27.565Z,14.60
2022-10-08T02:04:13.050Z,14.60
2022-10-08T02:06:45.096Z,14.60
2022-10-08T02:09:11.722Z,14.60
2022-10-08T02:11:38.390Z,14.60
2022-10-08T02:14:06.059Z,14.60
2022-10-08T02:16:34.914Z,14.50
2022-10-08T02:19:22.490Z,14.50
2022-10-08T02:21:52.608Z,14.50
2022-10-08T02:24:35.059Z,14.40
2022-10-08T02:27:04.419Z,14.30
2022-10-08T02:29:37.724Z,14.30
2022-10-08T02:32:20.009Z,14.30
2022-10-08T02:34:57.358Z,14.30
2022-10-08T02:37:31.409Z,14.30
2022-10-08T02:40:04.808Z,14.30
2022-10-08T02:42:32.919Z,14.30
2022-10-08T02:45:08.472Z,14.30
2022-10-08T02:47:38.857Z,14.30
2022-10-08T02:50:12.510Z,14.30
2022-10-08T02:52:42.947Z,14.30
2022-10-08T02:55:32.961Z,14.20
2022-10-08T02:58:04.731Z,14.30
2022-10-08T03:00:35.192Z,14.20
2022-10-08T03:03:13.222Z,14.20
2022-10-08T03:05:42.565Z,14.20
2022-10-08T03:08:12.053Z,14.20
2022-10-08T03:10:40.283Z,14.10
2022-10-08T03:13:08.966Z,14.10
2022-10-08T03:15:37.075Z,14.10
2022-10-08T03:18:08.471Z,14.10
2022-10-08T03:20:42.052Z,14.10
2022-10-08T03:23:09.047Z,14.10
2022-10-08T03:25:35.636Z,14.00
2022-10-08T03:28:02.225Z,14.00
2022-10-08T03:30:28.844Z,14.00
2022-10-08T03:32:55.403Z,14.00
2022-10-08T03:35:21.970Z,14.00
2022-10-08T03:37:48.530Z,14.00
2022-10-08T03:40:15.176Z,14.00
2022-10-08T03:42:41.731Z,13.90
2022-10-08T03:45:08.559Z,13.90
2022-10-08T03:47:35.152Z,13.90
2022-10-08T03:50:01.799Z,13.90
2022-10-08T03:52:30.682Z,13.90
2022-10-08T03:54:57.235Z,13.90
2022-10-08T03:57:23.857Z,13.90
2022-10-08T03:59:50.462Z,13.80
2022-10-08T04:02:17.051Z,13.80
2022-10-08T04:04:43.633Z,13.80
2022-10-08T04:07:10.193Z,13.80
2022-10-08T04:09:36.924Z,13.70
2022-10-08T04:12:03.663Z,13.70
2022-10-08T04:14:30.205Z,13.70
2022-10-08T04:16:56.757Z,13.70
2022-10-08T04:19:23.337Z,13.70
2022-10-08T04:21:49.933Z,13.70
2022-10-08T04:24:16.485Z,13.70
2022-10-08T04:26:43.093Z,13.60
2022-10-08T04:29:12.380Z,13.60
2022-10-08T04:31:40.215Z,13.50
2022-10-08T04:34:06.972Z,13.50
2022-10-08T04:36:33.598Z,13.40
2022-10-08T04:39:00.252Z,13.40
2022-10-08T04:41:27.096Z,13.40
2022-10-08T04:43:57.863Z,13.40
2022-10-08T04:46:24.512Z,13.40
2022-10-08T04:48:53.804Z,13.40
2022-10-08T04:51:23.199Z,13.40
2022-10-08T04:53:50.320Z,13.40
2022-10-08T04:56:19.906Z,13.40
2022-10-08T04:58:46.709Z,13.30
2022-10-08T05:01:16.818Z,13.30
2022-10-08T05:03:46.168Z,13.30
2022-10-08T05:06:14.866Z,13.30
2022-10-08T05:08:41.756Z,13.30
2022-10-08T05:11:09.091Z,13.20
2022-10-08T05:13:35.827Z,13.20
2022-10-08T05:16:10.925Z,13.20
2022-10-08T05:18:38.645Z,13.20
2022-10-08T05:21:07.918Z,13.20
2022-10-08T05:23:35.397Z,13.20
2022-10-08T05:26:10.498Z,13.10
2022-10-08T05:28:37.219Z,13.10
2022-10-08T05:31:04.049Z,13.10
2022-10-08T05:33:30.704Z,13.00
2022-10-08T05:35:57.286Z,13.00
2022-10-08T05:38:23.925Z,13.00
2022-10-08T05:40:50.511Z,13.00
2022-10-08T05:43:17.066Z,13.00
2022-10-08T05:45:50.914Z,12.90
2022-10-08T05:48:17.540Z,12.90
2022-10-08T05:50:44.124Z,12.90
2022-10-08T05:53:10.655Z,12.90
2022-10-08T05:55:37.207Z,12.90
2022-10-08T05:58:03.743Z,12.80
2022-10-08T06:00:30.319Z,12.80
2022-10-08T06:02:56.923Z,12.80
2022-10-08T06:05:23.508Z,12.80
2022-10-08T06:07:50.119Z,12.80
2022-10-08T06:10:17.207Z,12.80
2022-10-08T06:12:43.978Z,12.80
2022-10-08T06:15:10.788Z,12.80
2022-10-08T06:17:37.335Z,12.80
2022-10-08T06:20:04.127Z,12.80
2022-10-08T06:22:30.689Z,12.80
2022-10-08T06:24:57.240Z,12.80
2022-10-08T06:27:23.860Z,12.80
2022-10-08T06:29:50.435Z,12.80
2022-10-08T06:32:16.991Z,12.80
2022-10-08T06:34:43.580Z,12.80
2022-10-08T06:37:10.155Z,12.80
2022-10-08T06:39:36.737Z,12.80
2022-10-08T06:42:03.355Z,12.80
2022-10-08T06:44:29.896Z,12.80
2022-10-08T06:46:56.530Z,12.80
2022-10-08T06:49:26.563Z,12.80
2022-10-08T06:51:53.156Z,12.80
2022-10-08T06:54:19.734Z,12.80
2022-10-08T06:56:46.719Z,12.80
2022-10-08T06:59:13.268Z,12.90
2022-10-08T07:01:39.892Z,12.90
2022-10-08T07:04:06.842Z,12.90
2022-10-08T07:06:33.885Z,12.90
2022-10-08T07:09:01.752Z,12.80
2022-10-08T07:11:30.112Z,12.90
2022-10-08T07:13:58.157Z,12.90
2022-10-08T07:16:26.531Z,12.90
2022-10-08T07:18:54.598Z,12.90
2022-10-08T07:21:22.338Z,13.00
2022-10-08T07:23:49.692Z,13.10
2022-10-08T07:26:18.959Z,13.20
2022-10-08T07:29:06.758Z,13.30
2022-10-08T07:31:36.143Z,13.30
2022-10-08T07:34:05.641Z,13.40
2022-10-08T07:36:32.773Z,13.40
2022-10-08T07:39:01.896Z,13.60
2022-10-08T07:41:29.879Z,13.70
2022-10-08T07:43:59.545Z,13.90
2022-10-08T07:46:28.062Z,14.00
2022-10-08T07:48:56.713Z,14.10
2022-10-08T07:51:23.587Z,14.30
2022-10-08T07:53:50.215Z,14.40
2022-10-08T07:56:18.824Z,14.50
2022-10-08T07:58:45.942Z,14.60
2022-10-08T08:01:15.931Z,14.70
2022-10-08T08:03:43.464Z,14.80
2022-10-08T08:06:13.329Z,14.90
2022-10-08T08:08:42.371Z,15.00
2022-10-08T08:11:10.975Z,15.10
2022-10-08T08:13:39.590Z,15.20
2022-10-08T08:16:15.256Z,15.30
2022-10-08T08:18:44.619Z,15.50
2022-10-08T08:21:14.070Z,15.60
2022-10-08T08:23:42.881Z,15.60
2022-10-08T08:26:14.804Z,15.80
2022-10-08T08:28:41.468Z,16.10
2022-10-08T08:31:10.194Z,16.30
2022-10-08T08:33:37.172Z,16.60
2022-10-08T08:36:04.627Z,16.70
2022-10-08T08:38:33.709Z,16.70
2022-10-08T08:41:45.007Z,16.40
2022-10-08T08:44:18.100Z,16.30
2022-10-08T08:46:54.515Z,16.30
2022-10-08T08:49:36.149Z,16.20
2022-10-08T08:52:04.716Z,16.10
2022-10-08T08:54:31.534Z,16.00
2022-10-08T08:57:23.199Z,16.00
2022-10-08T08:59:54.367Z,15.90
2022-10-08T09:02:34.156Z,15.80
2022-10-08T09:05:06.556Z,15.80
2022-10-08T09:07:44.500Z,15.90
2022-10-08T09:10:18.324Z,16.20
2022-10-08T09:12:45.498Z,16.40
2022-10-08T09:15:33.688Z,16.40
2022-10-08T09:18:02.685Z,16.40
2022-10-08T09:20:30.654Z,16.40
2022-10-08T09:22:58.537Z,16.40
2022-10-08T09:25:31.080Z,16.50
2022-10-08T09:28:00.174Z,16.50
2022-10-08T09:30:31.838Z,16.60
2022-10-08T09:33:23.766Z,16.40
2022-10-08T09:35:52.675Z,16.30
2022-10-08T09:38:29.939Z,16.20
2022-10-08T09:41:00.711Z,16.00
2022-10-08T09:43:27.606Z,15.80
2022-10-08T09:45:55.707Z,15.70
2022-10-08T09:48:27.534Z,15.70
2022-10-08T09:51:00.299Z,16.00
2022-10-08T09:53:33.887Z,16.50
2022-10-08T09:56:06.258Z,16.90
2022-10-08T09:58:38.072Z,17.20
2022-10-08T10:01:06.414Z,17.40
2022-10-08T10:03:36.854Z,17.50
2022-10-08T10:06:03.813Z,17.70
2022-10-08T10:08:50.737Z,17.80
2022-10-08T10:11:35.235Z,18.00
2022-10-08T10:14:14.586Z,18.00
2022-10-08T10:16:44.480Z,17.90
2022-10-08T10:19:20.979Z,17.80
2022-10-08T10:22:01.078Z,17.90
2022-10-08T10:24:36.225Z,17.60
2022-10-08T10:27:10.442Z,17.40
2022-10-08T10:29:52.970Z,17.20
2022-10-08T10:32:28.530Z,17.40
2022-10-08T10:35:05.034Z,17.60
2022-10-08T10:37:47.482Z,17.80
2022-10-08T10:40:36.913Z,18.10
2022-10-08T10:43:39.399Z,18.20
2022-10-08T10:46:18.909Z,18.30
2022-10-08T10:48:45.562Z,18.40
2022-10-08T10:51:44.907Z,18.50
2022-10-08T10:54:39.204Z,18.60
2022-10-08T10:57:14.932Z,18.70
2022-10-08T10:59:54.420Z,18.60
2022-10-08T11:02:29.166Z,18.60
2022-10-08T11:05:22.853Z,18.60
2022-10-08T11:08:04.498Z,18.20
2022-10-08T11:10:58.378Z,18.00
2022-10-08T11:13:35.906Z,18.00
2022-10-08T11:16:29.418Z,17.80
2022-10-08T11:18:58.806Z,18.00
2022-10-08T11:21:25.328Z,17.90
2022-10-08T11:24:05.312Z,18.10
2022-10-08T11:26:38.800Z,18.40
2022-10-08T11:29:26.854Z,18.40
2022-10-08T11:31:53.869Z,18.50
2022-10-08T11:34:35.596Z,18.40
2022-10-08T11:37:05.959Z,18.30
2022-10-08T11:39:55.659Z,18.20
2022-10-08T11:42:56.864Z,18.20
2022-10-08T11:45:23.380Z,18.10
2022-10-08T11:47:54.858Z,18.00
2022-10-08T11:50:27.863Z,18.00
2022-10-08T11:52:59.654Z,18.10
2022-10-08T11:55:33.352Z,17.90
2022-10-08T11:58:08.387Z,17.80
2022-10-08T12:00:45.257Z,17.60
2022-10-08T12:03:23.200Z,17.40
2022-10-08T12:05:53.103Z,17.10
2022-10-08T12:08:53.849Z,17.00
2022-10-08T12:11:32.671Z,17.20
2022-10-08T12:14:11.550Z,17.40
2022-10-08T12:16:47.354Z,17.70
2022-10-08T12:19:32.397Z,17.90
2022-10-08T12:22:25.231Z,18.20
2022-10-08T12:24:56.691Z,18.30
2022-10-08T12:27:34.821Z,18.20
2022-10-08T12:30:16.526Z,18.10
2022-10-08T12:32:43.387Z,18.00
2022-10-08T12:35:31.736Z,17.90
2022-10-08T12:38:28.480Z,17.90
2022-10-08T12:41:20.905Z,17.70
2022-10-08T12:44:02.635Z,17.70
2022-10-08T12:46:50.533Z,17.90
2022-10-08T12:49:40.134Z,17.70
2022-10-08T12:52:10.336Z,17.40
2022-10-08T12:54:40.793Z,17.30
2022-10-08T12:57:10.948Z,17.30
2022-10-08T12:59:40.725Z,17.20
2022-10-08T13:02:28.895Z,17.20
2022-10-08T13:04:55.469Z,17.20
2022-10-08T13:07:28.230Z,17.10
2022-10-08T13:09:57.076Z,17.10
2022-10-08T13:12:23.936Z,17.10
2022-10-08T13:15:05.172Z,17.00
2022-10-08T13:17:34.160Z,17.00
2022-10-08T13:20:11.649Z,17.10
2022-10-08T13:22:38.451Z,17.30
2022-10-08T13:25:06.227Z,17.40
2022-10-08T13:27:33.815Z,17.60
2022-10-08T13:30:20.922Z,17.70
2022-10-08T13:32:47.529Z,17.70
2022-10-08T13:35:23.415Z,17.80
2022-10-08T13:37:54.135Z,17.80
2022-10-08T13:40:23.331Z,17.80
2022-10-08T13:42:52.984Z,17.90
2022-10-08T13:45:28.752Z,17.90
2022-10-08T13:47:56.196Z,17.90
2022-10-08T13:50:23.759Z,17.90
2022-10-08T13:52:54.576Z,17.90
2022-10-08T13:55:23.921Z,17.80
2022-10-08T13:57:50.768Z,17.80
2022-10-08T14:00:18.019Z,17.80
2022-10-08T14:02:44.582Z,17.60
2022-10-08T14:05:11.155Z,17.40
2022-10-08T14:07:38.534Z,17.40
2022-10-08T14:10:06.183Z,17.50
2022-10-08T14:12:34.601Z,17.50
2022-10-08T14:15:01.210Z,17.30
2022-10-08T14:17:27.775Z,17.20
2022-10-08T14:19:55.461Z,17.20
2022-10-08T14:22:22.768Z,17.20
2022-10-08T14:24:49.396Z,17.20
2022-10-08T14:27:16.268Z,17.20
2022-10-08T14:29:42.879Z,17.20
2022-10-08T14:32:10.423Z,17.30
2022-10-08T14:34:37.090Z,17.20
2022-10-08T14:37:04.216Z,17.20
2022-10-08T14:39:31.432Z,17.20
2022-10-08T14:41:58.654Z,17.20
2022-10-08T14:44:25.300Z,17.20
2022-10-08T14:46:52.743Z,17.00
2022-10-08T14:49:20.086Z,17.10
2022-10-08T14:51:47.184Z,16.90
2022-10-08T14:54:13.745Z,16.80
2022-10-08T14:56:42.557Z,16.70
2022-10-08T14:59:10.306Z,16.80
2022-10-08T15:01:37.084Z,16.80
2022-10-08T15:04:04.855Z,16.70
2022-10-08T15:06:32.283Z,16.60
2022-10-08T15:08:59.157Z,16.60
2022-10-08T15:11:25.720Z,16.60
2022-10-08T15:13:53.424Z,16.50
2022-10-08T15:16:20.113Z,16.40
2022-10-08T15:18:47.038Z,16.40
2022-10-08T15:21:13.742Z,16.30
2022-10-08T15:23:40.378Z,16.20
2022-10-08T15:26:11.776Z,16.20
2022-10-08T15:28:38.471Z,16.20
2022-10-08T15:31:13.108Z,16.30
2022-10-08T15:33:42.756Z,16.20
2022-10-08T15:36:17.710Z,16.20
2022-10-08T15:38:44.682Z,16.20
2022-10-08T15:41:11.435Z,16.20
2022-10-08T15:43:38.000Z,16.20
2022-10-08T15:46:11.086Z,16.10
2022-10-08T15:48:38.323Z,16.20
2022-10-08T15:51:05.916Z,16.20
2022-10-08T15:53:34.444Z,16.20
2022-10-08T15:56:01.077Z,16.20
2022-10-08T15:58:49.461Z,16.20
2022-10-08T16:01:19.686Z,16.20
2022-10-08T16:03:48.025Z,16.10
2022-10-08T16:06:17.787Z,16.00
2022-10-08T16:08:45.110Z,16.00
2022-10-08T16:11:19.283Z,16.00
2022-10-08T16:13:48.686Z,15.90
2022-10-08T16:16:18.515Z,15.90
2022-10-08T16:18:46.868Z,15.90
2022-10-08T16:21:14.055Z,15.80
2022-10-08T16:23:40.639Z,15.80
2022-10-08T16:26:08.847Z,15.80
2022-10-08T16:28:38.327Z,15.70
2022-10-08T16:31:06.009Z,15.70
2022-10-08T16:33:33.025Z,15.60
2022-10-08T16:36:05.561Z,15.60
2022-10-08T16:38:37.796Z,15.50
2022-10-08T16:41:22.364Z,15.50
2022-10-08T16:43:50.841Z,15.50
2022-10-08T16:46:23.507Z,15.40
2022-10-08T16:49:03.405Z,15.40
2022-10-08T16:51:33.222Z,15.40
2022-10-08T16:54:01.128Z,15.40
2022-10-08T16:56:33.340Z,15.30
2022-10-08T16:59:08.952Z,15.20
2022-10-08T17:01:38.098Z,15.10
2022-10-08T17:04:08.233Z,15.10
2022-10-08T17:06:35.329Z,15.10
2022-10-08T17:09:02.351Z,15.00
2022-10-08T17:11:28.912Z,15.00
2022-10-08T17:13:57.410Z,14.90
2022-10-08T17:16:26.122Z,14.80
2022-10-08T17:18:54.629Z,14.80
2022-10-08T17:21:21.658Z,14.70
2022-10-08T17:23:49.133Z,14.70
2022-10-08T17:26:18.207Z,14.60
2022-10-08T17:28:46.981Z,14.60
2022-10-08T17:31:16.550Z,14.50
2022-10-08T17:33:43.666Z,14.40
2022-10-08T17:36:19.393Z,14.40
2022-10-08T17:38:47.671Z,14.30
2022-10-08T17:41:17.137Z,14.20
2022-10-08T17:43:44.050Z,14.20
2022-10-08T17:46:13.999Z,14.20
2022-10-08T17:48:41.381Z,14.10
2022-10-08T17:51:10.923Z,14.10
2022-10-08T17:53:37.867Z,14.00
2022-10-08T17:56:07.587Z,14.00
2022-10-08T17:58:34.440Z,13.90
2022-10-08T18:01:06.941Z,13.90
2022-10-08T18:03:33.951Z,13.90
2022-10-08T18:06:00.584Z,13.80
2022-10-08T18:08:27.282Z,13.80
2022-10-08T18:10:54.019Z,13.80
2022-10-08T18:13:20.786Z,13.70
2022-10-08T18:15:47.755Z,13.70
2022-10-08T18:18:14.472Z,13.70
2022-10-08T18:20:41.083Z,13.60
2022-10-08T18:23:08.393Z,13.60
2022-10-08T18:25:35.801Z,13.60
2022-10-08T18:28:02.734Z,13.50
2022-10-08T18:30:29.521Z,13.50
2022-10-08T18:32:57.050Z,13.40
2022-10-08T18:35:24.622Z,13.40
2022-10-08T18:37:51.801Z,13.30
2022-10-08T18:40:18.420Z,13.30
2022-10-08T18:42:45.333Z,13.30
2022-10-08T18:45:12.257Z,13.20
2022-10-08T18:47:38.814Z,13.20
2022-10-08T18:50:05.873Z,13.10
2022-10-08T18:52:33.243Z,13.10
2022-10-08T18:55:03.138Z,13.00
2022-10-08T18:57:29.701Z,12.90
2022-10-08T18:59:56.308Z,12.90
2022-10-08T19:02:23.040Z,12.90
2022-10-08T19:04:50.130Z,12.80
2022-10-08T19:07:16.723Z,12.70
2022-10-08T19:09:43.300Z,12.70
2022-10-08T19:12:09.883Z,12.70
2022-10-08T19:14:36.420Z,12.60
2022-10-08T19:17:02.987Z,12.60
2022-10-08T19:19:31.609Z,12.50
2022-10-08T19:22:01.256Z,12.50
2022-10-08T19:24:28.706Z,12.40
2022-10-08T19:26:57.115Z,12.30
2022-10-08T19:29:26.685Z,12.30
2022-10-08T19:31:53.462Z,12.20
2022-10-08T19:34:23.192Z,12.20
2022-10-08T19:36:50.157Z,12.20
2022-10-08T19:39:25.387Z,12.10
2022-10-08T19:41:52.352Z,12.10
2022-10-08T19:44:19.895Z,12.10
2022-10-08T19:46:47.020Z,12.00
2022-10-08T19:49:13.816Z,12.00
2022-10-08T19:51:40.946Z,11.90
2022-10-08T19:54:07.886Z,11.90
2022-10-08T19:56:35.847Z,11.80
2022-10-08T19:59:02.463Z,11.80
2022-10-08T20:01:32.466Z,11.70
2022-10-08T20:04:00.775Z,11.70
2022-10-08T20:06:30.359Z,11.60
2022-10-08T20:08:59.061Z,11.60
2022-10-08T20:11:26.243Z,11.60
2022-10-08T20:13:53.941Z,11.50
2022-10-08T20:16:26.557Z,11.50
2022-10-08T20:18:56.030Z,11.50
2022-10-08T20:21:22.867Z,11.50
2022-10-08T20:23:49.577Z,11.40
2022-10-08T20:26:27.599Z,11.40
2022-10-08T20:28:59.826Z,11.30
2022-10-08T20:31:30.267Z,11.30
2022-10-08T20:34:09.873Z,11.30
2022-10-08T20:36:36.435Z,11.20
2022-10-08T20:39:03.167Z,11.20
2022-10-08T20:41:31.139Z,11.20
2022-10-08T20:44:02.953Z,11.20
2022-10-08T20:46:31.614Z,11.20
2022-10-08T20:48:58.719Z,11.10
2022-10-08T20:51:26.918Z,11.00
2022-10-08T20:53:56.043Z,11.00
2022-10-08T20:56:23.380Z,11.00
2022-10-08T20:58:50.499Z,10.90
2022-10-08T21:01:18.675Z,10.90
2022-10-08T21:03:46.383Z,10.80
2022-10-08T21:06:18.363Z,10.80
2022-10-08T21:08:47.229Z,10.80
2022-10-08T21:11:16.074Z,10.70
2022-10-08T21:13:43.635Z,10.70
2022-10-08T21:16:14.043Z,10.70
2022-10-08T21:18:41.325Z,10.70
2022-10-08T21:21:11.379Z,10.60
2022-10-08T21:23:38.695Z,10.50
2022-10-08T21:26:06.318Z,10.50
2022-10-08T21:28:33.170Z,10.50
2022-10-08T21:31:03.990Z,10.50
2022-10-08T21:33:34.055Z,10.50
2022-10-08T21:36:00.720Z,10.50
2022-10-08T21:38:27.277Z,10.50
2022-10-08T21:40:58.503Z,10.40
2022-10-08T21:43:25.399Z,10.40
2022-10-08T21:45:56.753Z,10.40
2022-10-08T21:48:24.402Z,10.40
2022-10-08T21:51:08.976Z,10.40
2022-10-08T21:53:37.591Z,10.30
2022-10-08T21:56:07.280Z,10.30
2022-10-08T21:58:39.808Z,10.20
2022-10-08T22:01:08.596Z,10.30
2022-10-08T22:03:35.289Z,10.30
2022-10-08T22:06:04.462Z,10.30
2022-10-08T22:08:31.803Z,10.30
2022-10-08T22:10:58.659Z,10.20
2022-10-08T22:13:25.246Z,10.20
2022-10-08T22:16:00.192Z,10.20
2022-10-08T22:18:29.720Z,10.20
2022-10-08T22:20:56.405Z,10.10
2022-10-08T22:23:23.447Z,10.10
2022-10-08T22:25:58.791Z,10.10
2022-10-08T22:28:26.091Z,10.10
2022-10-08T22:30:53.402Z,10.10
2022-10-08T22:33:20.450Z,10.10
2022-10-08T22:35:47.391Z,10.00
2022-10-08T22:38:14.099Z,10.10
2022-10-08T22:40:40.763Z,10.00
2022-10-08T22:43:07.392Z,10.00
2022-10-08T22:45:38.790Z,9.90
2022-10-08T22:48:05.692Z,9.90
2022-10-08T22:50:35.358Z,9.90
2022-10-08T22:53:02.013Z,9.80
2022-10-08T22:55:29.455Z,9.80
2022-10-08T22:57:56.756Z,9.80
2022-10-08T23:00:23.346Z,9.80
2022-10-08T23:02:50.625Z,9.70
2022-10-08T23:05:17.449Z,9.70
2022-10-08T23:07:44.011Z,9.70
2022-10-08T23:10:10.597Z,9.60
2022-10-08T23:12:37.161Z,9.60
2022-10-08T23:15:04.310Z,9.60
2022-10-08T23:17:30.848Z,9.60
2022-10-08T23:19:57.382Z,9.50
2022-10-08T23:22:25.008Z,9.50
2022-10-08T23:24:51.542Z,9.50
2022-10-08T23:27:18.079Z,9.50
2022-10-08T23:29:44.804Z,9.50
2022-10-08T23:32:11.466Z,9.50
2022-10-08T23:34:38.088Z,9.50
2022-10-08T23:37:04.644Z,9.50
2022-10-08T23:39:31.194Z,9.40
2022-10-08T23:41:57.768Z,9.40
2022-10-08T23:44:24.364Z,9.30
2022-10-08T23:46:50.956Z,9.30
2022-10-08T23:49:17.572Z,9.30
2022-10-08T23:51:44.126Z,9.30
2022-10-08T23:54:10.704Z,9.30
2022-10-08T23:56:37.331Z,9.30
2022-10-08T23:59:03.934Z,9.20
